createdAt,value
2022-09-15T00:02:03.367Z,1.88
2022-09-15T00:04:30.143Z,5.03
2022-09-15T00:06:56.846Z,2.33
2022-09-15T00:09:23.620Z,2.65
2022-09-15T00:11:50.313Z,2.25
2022-09-15T00:14:17.076Z,2.53
2022-09-15T00:16:44.469Z,2.60
2022-09-15T00:19:11.259Z,2.00
2022-09-15T00:21:39.973Z,2.97
2022-09-15T00:24:06.846Z,2.20
2022-09-15T00:26:33.626Z,2.10
2022-09-15T00:29:00.977Z,3.03
2022-09-15T00:31:28.611Z,3.08
2022-09-15T00:33:56.767Z,5.10
2022-09-15T00:36:24.101Z,2.15
2022-09-15T00:38:50.920Z,2.72
2022-09-15T00:41:18.781Z,2.33
2022-09-15T00:43:52.816Z,3.42
2022-09-15T00:46:24.122Z,3.90
2022-09-15T00:48:53.405Z,2.65
2022-09-15T00:51:22.313Z,2.97
2022-09-15T00:53:49.051Z,2.70
2022-09-15T00:56:16.219Z,3.05
2022-09-15T00:58:47.150Z,2.92
2022-09-15T01:01:13.935Z,2.47
2022-09-15T01:03:40.926Z,2.58
2022-09-15T01:06:12.590Z,1.55
2022-09-15T01:08:46.340Z,1.90
2022-09-15T01:11:15.473Z,2.75
2022-09-15T01:13:42.183Z,2.05
2022-09-15T01:19:43.060Z,2.97
2022-09-15T01:22:37.209Z,2.13
2022-09-15T01:25:03.913Z,1.77
2022-09-15T01:27:56.722Z,1.65
2022-09-15T01:30:23.972Z,3.25
2022-09-15T01:33:12.095Z,3.85
2022-09-15T01:36:00.094Z,3.60
2022-09-15T01:38:56.682Z,2.10
2022-09-15T01:41:49.552Z,2.50
2022-09-15T01:44:27.914Z,2.45
2022-09-15T01:47:00.008Z,1.98
2022-09-15T01:49:29.247Z,4.15
2022-09-15T01:51:56.005Z,1.75
2022-09-15T01:54:25.221Z,4.28
2022-09-15T01:56:52.037Z,3.58
2022-09-15T01:59:19.378Z,2.35
2022-09-15T02:01:54.369Z,3.35
2022-09-15T02:04:33.810Z,1.83
2022-09-15T02:07:11.690Z,4.43
2022-09-15T02:10:13.192Z,2.50
2022-09-15T02:12:45.275Z,2.13
2022-09-15T02:15:15.028Z,1.92
2022-09-15T02:17:43.613Z,2.25
2022-09-15T02:20:49.678Z,2.17
2022-09-15T02:23:24.214Z,1.77
2022-09-15T02:25:53.956Z,3.20
2022-09-15T02:28:21.964Z,2.78
2022-09-15T02:30:48.694Z,2.80
2022-09-15T02:33:19.974Z,1.05
2022-09-15T02:35:46.991Z,2.40
2022-09-15T02:38:13.725Z,1.98
2022-09-15T02:40:41.855Z,2.80
2022-09-15T02:43:11.319Z,1.80
2022-09-15T02:45:38.187Z,1.98
2022-09-15T02:48:05.136Z,3.22
2022-09-15T02:50:31.867Z,2.00
2022-09-15T02:52:58.585Z,3.92
2022-09-15T02:55:29.078Z,2.30
2022-09-15T02:57:56.951Z,3.65
2022-09-15T03:00:23.669Z,2.03
2022-09-15T03:02:52.129Z,2.72
2022-09-15T03:05:23.879Z,1.40
2022-09-15T03:07:50.953Z,2.47
2022-09-15T03:10:17.912Z,4.45
2022-09-15T03:12:46.742Z,3.45
2022-09-15T03:15:14.725Z,3.38
2022-09-15T03:17:42.175Z,2.83
2022-09-15T03:20:09.954Z,2.55
2022-09-15T03:22:36.710Z,2.35
2022-09-15T03:25:05.638Z,2.95
2022-09-15T03:27:33.100Z,4.43
2022-09-15T03:29:59.990Z,7.50
2022-09-15T03:32:26.986Z,3.65
2022-09-15T03:34:57.699Z,1.67
2022-09-15T03:37:25.963Z,2.58
2022-09-15T03:39:52.803Z,2.13
2022-09-15T03:42:19.922Z,2.50
2022-09-15T03:44:46.626Z,3.78
2022-09-15T03:47:13.366Z,2.17
2022-09-15T03:49:40.074Z,2.20
2022-09-15T03:52:06.808Z,2.47
2022-09-15T03:54:35.499Z,1.65
2022-09-15T03:57:03.481Z,2.05
2022-09-15T03:59:30.210Z,2.15
2022-09-15T04:01:57.066Z,4.35
2022-09-15T04:04:23.942Z,1.33
2022-09-15T04:06:50.668Z,2.03
2022-09-15T04:09:17.471Z,1.50
2022-09-15T04:11:44.206Z,2.38
2022-09-15T04:14:10.917Z,1.73
2022-09-15T04:16:37.708Z,2.22
2022-09-15T04:19:04.815Z,1.63
2022-09-15T04:21:32.109Z,2.08
2022-09-15T04:23:58.857Z,2.67
2022-09-15T04:26:31.410Z,2.05
2022-09-15T04:29:03.047Z,1.40
2022-09-15T04:31:30.945Z,1.75
2022-09-15T04:33:58.060Z,4.40
2022-09-15T04:36:26.431Z,2.17
2022-09-15T04:38:53.371Z,1.88
2022-09-15T04:41:20.910Z,1.92
2022-09-15T04:43:47.977Z,2.45
2022-09-15T04:46:15.154Z,4.82
2022-09-15T04:48:42.329Z,2.25
2022-09-15T04:51:11.779Z,2.17
2022-09-15T04:53:38.528Z,2.33
2022-09-15T04:56:07.055Z,2.00
2022-09-15T04:58:41.033Z,1.60
2022-09-15T05:01:19.036Z,2.60
2022-09-15T05:03:46.537Z,2.35
2022-09-15T05:06:14.936Z,1.75
2022-09-15T05:08:41.735Z,2.63
2022-09-15T05:11:10.261Z,1.80
2022-09-15T05:13:37.302Z,3.15
2022-09-15T05:16:14.619Z,6.35
2022-09-15T05:18:42.424Z,2.50
2022-09-15T05:21:10.272Z,2.65
2022-09-15T05:23:37.201Z,2.38
2022-09-15T05:26:06.220Z,3.55
2022-09-15T05:28:33.942Z,3.63
2022-09-15T05:31:00.708Z,2.80
2022-09-15T05:33:28.017Z,3.17
2022-09-15T05:35:56.436Z,1.60
2022-09-15T05:38:24.038Z,3.65
2022-09-15T05:40:50.871Z,3.00
2022-09-15T05:43:17.947Z,4.15
2022-09-15T05:45:44.801Z,2.65
2022-09-15T05:48:11.985Z,3.05
2022-09-15T05:50:39.335Z,3.15
2022-09-15T05:53:07.502Z,2.95
2022-09-15T05:55:38.022Z,1.95
2022-09-15T05:58:04.775Z,3.78
2022-09-15T06:00:31.616Z,4.38
2022-09-15T06:02:58.730Z,7.82
2022-09-15T06:05:25.543Z,2.85
2022-09-15T06:07:55.941Z,4.15
2022-09-15T06:10:24.855Z,4.18
2022-09-15T06:12:54.870Z,5.25
2022-09-15T06:15:21.979Z,2.72
2022-09-15T06:17:48.852Z,3.17
2022-09-15T06:20:15.720Z,4.85
2022-09-15T06:22:42.460Z,4.65
2022-09-15T06:25:09.384Z,6.55
2022-09-15T06:27:36.402Z,6.00
2022-09-15T06:30:03.237Z,9.18
2022-09-15T06:32:29.993Z,8.05
2022-09-15T06:34:56.885Z,5.78
2022-09-15T06:37:23.987Z,5.25
2022-09-15T06:39:51.158Z,8.25
2022-09-15T06:42:17.947Z,8.38
2022-09-15T06:44:44.771Z,7.18
2022-09-15T06:47:14.827Z,9.63
2022-09-15T06:49:41.545Z,10.48
2022-09-15T06:52:08.521Z,8.43
2022-09-15T06:54:35.303Z,7.60
2022-09-15T06:57:02.011Z,5.18
2022-09-15T06:59:29.323Z,6.28
2022-09-15T07:01:56.133Z,7.65
2022-09-15T07:04:22.992Z,9.80
2022-09-15T07:06:50.646Z,7.25
2022-09-15T07:09:17.428Z,11.63
2022-09-15T07:11:44.191Z,5.53
2022-09-15T07:14:11.442Z,6.85
2022-09-15T07:16:38.471Z,8.52
2022-09-15T07:19:05.974Z,6.90
2022-09-15T07:21:33.437Z,5.70
2022-09-15T07:24:03.817Z,12.07
2022-09-15T07:26:33.914Z,7.30
2022-09-15T07:29:02.084Z,4.88
2022-09-15T07:31:31.189Z,7.35
2022-09-15T07:33:59.930Z,11.18
2022-09-15T07:36:26.642Z,7.55
2022-09-15T07:38:53.557Z,8.18
2022-09-15T07:41:21.985Z,4.90
2022-09-15T07:43:52.926Z,6.20
2022-09-15T07:46:20.249Z,7.60
2022-09-15T07:48:47.967Z,6.40
2022-09-15T07:51:15.137Z,5.65
2022-09-15T07:53:42.717Z,9.02
2022-09-15T07:56:09.690Z,19.80
2022-09-15T07:58:36.435Z,7.80
2022-09-15T08:01:07.572Z,5.88
2022-09-15T08:03:34.396Z,7.95
2022-09-15T08:06:02.162Z,7.20
2022-09-15T08:08:29.380Z,7.80
2022-09-15T08:10:56.267Z,7.05
2022-09-15T08:13:23.160Z,7.93
2022-09-15T08:15:50.714Z,8.95
2022-09-15T08:18:17.687Z,8.50
2022-09-15T08:20:44.489Z,11.95
2022-09-15T08:23:11.341Z,7.78
2022-09-15T08:25:40.908Z,7.22
2022-09-15T08:28:08.070Z,9.55
2022-09-15T08:30:35.384Z,7.63
2022-09-15T08:33:02.092Z,8.15
2022-09-15T08:35:29.831Z,9.35
2022-09-15T08:37:57.487Z,7.05
2022-09-15T08:40:35.831Z,7.47
2022-09-15T08:43:06.145Z,6.65
2022-09-15T08:45:47.029Z,6.72
2022-09-15T08:48:15.751Z,8.23
2022-09-15T08:50:45.051Z,11.40
2022-09-15T08:53:35.886Z,7.43
2022-09-15T08:56:09.334Z,7.00
2022-09-15T08:58:37.685Z,8.73
2022-09-15T09:01:10.905Z,8.07
2022-09-15T09:03:55.153Z,6.07
2022-09-15T09:06:40.787Z,9.05
2022-09-15T09:09:09.387Z,9.63
2022-09-15T09:11:45.943Z,7.45
2022-09-15T09:14:30.216Z,8.73
2022-09-15T09:17:03.244Z,7.78
2022-09-15T09:20:00.633Z,6.38
2022-09-15T09:22:32.693Z,10.70
2022-09-15T09:25:03.465Z,6.00
2022-09-15T09:27:35.584Z,5.18
2022-09-15T09:30:22.495Z,6.90
2022-09-15T09:33:08.235Z,5.07
2022-09-15T09:35:41.964Z,6.32
2022-09-15T09:38:12.773Z,7.22
2022-09-15T09:40:41.205Z,9.98
2022-09-15T09:43:08.252Z,6.10
2022-09-15T09:45:34.978Z,6.82
2022-09-15T09:48:15.388Z,5.93
2022-09-15T09:50:45.323Z,5.32
2022-09-15T09:53:28.588Z,6.38
2022-09-15T09:56:14.225Z,4.68
2022-09-15T09:58:40.962Z,3.92
2022-09-15T10:01:10.670Z,3.50
2022-09-15T10:03:38.799Z,6.15
2022-09-15T10:06:19.174Z,3.05
2022-09-15T10:08:59.525Z,7.75
2022-09-15T10:11:54.361Z,3.83
2022-09-15T10:14:41.584Z,7.07
2022-09-15T10:17:11.366Z,4.50
2022-09-15T10:19:56.552Z,3.47
2022-09-15T10:22:35.695Z,3.10
2022-09-15T10:25:39.519Z,3.33
2022-09-15T10:28:13.575Z,2.78
2022-09-15T10:30:59.449Z,3.22
2022-09-15T10:33:27.784Z,3.50
2022-09-15T10:35:55.719Z,2.17
2022-09-15T10:38:30.575Z,4.05
2022-09-15T10:41:03.572Z,2.88
2022-09-15T10:43:49.397Z,4.72
2022-09-15T10:46:28.817Z,4.90
2022-09-15T10:48:55.778Z,2.05
2022-09-15T10:51:33.483Z,2.45
2022-09-15T10:54:20.989Z,2.28
2022-09-15T10:56:49.386Z,6.18
2022-09-15T10:59:25.088Z,3.63
2022-09-15T11:01:54.993Z,2.85
2022-09-15T11:04:28.099Z,2.35
2022-09-15T11:07:03.897Z,4.25
2022-09-15T11:10:01.579Z,2.80
2022-09-15T11:12:41.741Z,4.28
2022-09-15T11:15:31.143Z,1.73
2022-09-15T11:18:16.371Z,4.85
2022-09-15T11:20:51.893Z,2.00
2022-09-15T11:23:34.781Z,2.75
2022-09-15T11:26:17.306Z,2.63
2022-09-15T11:29:05.872Z,1.95
2022-09-15T11:31:41.133Z,4.55
2022-09-15T11:34:19.631Z,1.88
2022-09-15T11:37:25.690Z,2.03
2022-09-15T11:40:06.758Z,3.55
2022-09-15T11:42:46.125Z,2.70
2022-09-15T11:45:22.643Z,2.45
2022-09-15T11:47:52.099Z,4.97
2022-09-15T11:50:22.029Z,2.05
2022-09-15T11:52:57.526Z,2.72
2022-09-15T11:55:40.392Z,4.45
2022-09-15T11:58:28.856Z,2.83
2022-09-15T12:01:11.400Z,5.35
2022-09-15T12:04:17.044Z,2.03
2022-09-15T12:07:05.266Z,3.92
2022-09-15T12:09:33.215Z,2.78
2022-09-15T12:12:03.208Z,3.38
2022-09-15T12:14:39.110Z,3.42
2022-09-15T12:17:06.508Z,3.78
2022-09-15T12:19:33.665Z,5.25
2022-09-15T12:22:38.712Z,2.45
2022-09-15T12:25:07.406Z,2.97
2022-09-15T12:27:34.424Z,3.42
2022-09-15T12:30:01.657Z,1.45
2022-09-15T12:32:29.903Z,2.65
2022-09-15T12:35:05.130Z,2.97
2022-09-15T12:37:42.780Z,3.35
2022-09-15T12:40:33.618Z,4.18
2022-09-15T12:43:20.528Z,3.42
2022-09-15T12:46:00.526Z,6.63
2022-09-15T12:48:32.361Z,2.63
2022-09-15T12:51:05.068Z,2.40
2022-09-15T12:53:53.501Z,3.78
2022-09-15T12:56:25.138Z,2.00
2022-09-15T12:58:52.200Z,3.03
2022-09-15T13:01:19.405Z,7.57
2022-09-15T13:03:46.557Z,3.40
2022-09-15T13:06:29.714Z,3.17
2022-09-15T13:09:02.970Z,5.57
2022-09-15T13:11:36.969Z,3.47
2022-09-15T13:14:03.855Z,4.82
2022-09-15T13:16:41.221Z,2.75
2022-09-15T13:19:35.917Z,2.67
2022-09-15T13:22:11.862Z,2.63
2022-09-15T13:24:50.079Z,2.58
2022-09-15T13:27:19.327Z,5.93
2022-09-15T13:29:49.273Z,6.65
2022-09-15T13:32:40.584Z,8.20
2022-09-15T13:35:20.429Z,3.03
2022-09-15T13:38:30.725Z,5.47
2022-09-15T13:41:20.080Z,7.25
2022-09-15T13:44:04.840Z,5.47
2022-09-15T13:46:34.529Z,6.57
2022-09-15T13:49:20.030Z,7.93
2022-09-15T13:51:59.749Z,5.90
2022-09-15T13:54:26.555Z,4.60
2022-09-15T13:56:53.398Z,7.25
2022-09-15T13:59:24.942Z,6.47
2022-09-15T14:01:52.994Z,4.60
2022-09-15T14:04:27.863Z,4.45
2022-09-15T14:07:00.015Z,5.38
2022-09-15T14:09:33.338Z,3.35
2022-09-15T14:12:03.042Z,4.07
2022-09-15T14:14:38.616Z,2.90
2022-09-15T14:17:05.582Z,4.70
2022-09-15T14:19:36.961Z,5.60
2022-09-15T14:22:21.709Z,4.40
2022-09-15T14:24:48.459Z,3.40
2022-09-15T14:27:22.020Z,3.10
2022-09-15T14:29:50.243Z,4.72
2022-09-15T14:32:17.166Z,5.28
2022-09-15T14:34:44.266Z,1.80
2022-09-15T14:37:20.933Z,3.60
2022-09-15T14:39:56.606Z,3.17
2022-09-15T14:42:27.600Z,6.57
2022-09-15T14:47:43.353Z,3.28
2022-09-15T14:50:22.148Z,7.38
2022-09-15T14:52:54.849Z,4.97
2022-09-15T14:55:28.200Z,2.08
2022-09-15T14:58:00.912Z,4.00
2022-09-15T15:00:29.896Z,4.32
2022-09-15T15:02:58.907Z,2.92
2022-09-15T15:05:54.689Z,5.35
2022-09-15T15:08:36.811Z,4.85
2022-09-15T15:11:06.513Z,3.45
2022-09-15T15:13:33.250Z,3.83
2022-09-15T15:16:00.231Z,4.75
2022-09-15T15:18:45.015Z,2.58
2022-09-15T15:21:31.248Z,5.10
2022-09-15T15:23:58.120Z,5.03
2022-09-15T15:26:28.687Z,5.22
2022-09-15T15:28:55.520Z,3.70
2022-09-15T15:31:24.161Z,3.95
2022-09-15T15:33:59.595Z,3.88
2022-09-15T15:36:27.945Z,2.88
2022-09-15T15:39:05.355Z,5.05
2022-09-15T15:41:35.844Z,6.32
2022-09-15T15:44:07.768Z,2.85
2022-09-15T15:46:51.977Z,5.53
2022-09-15T15:49:20.961Z,4.53
2022-09-15T15:51:47.767Z,7.13
2022-09-15T15:54:14.549Z,4.85
2022-09-15T15:56:41.382Z,9.52
2022-09-15T15:59:09.816Z,6.50
2022-09-15T16:01:37.169Z,6.32
2022-09-15T16:04:04.114Z,5.85
2022-09-15T16:06:30.861Z,5.45
2022-09-15T16:08:58.280Z,9.77
2022-09-15T16:11:25.039Z,9.10
2022-09-15T16:13:52.173Z,5.55
2022-09-15T16:16:20.856Z,5.47
2022-09-15T16:18:47.752Z,4.45
2022-09-15T16:21:18.256Z,4.43
2022-09-15T16:23:45.364Z,4.82
2022-09-15T16:26:15.718Z,5.95
2022-09-15T16:28:42.796Z,6.50
2022-09-15T16:31:13.345Z,5.57
2022-09-15T16:33:41.714Z,5.82
2022-09-15T16:36:12.283Z,5.80
2022-09-15T16:38:39.163Z,4.70
2022-09-15T16:41:15.728Z,4.35
2022-09-15T16:43:43.089Z,6.45
2022-09-15T16:46:11.180Z,5.65
2022-09-15T16:48:39.005Z,4.85
2022-09-15T16:51:25.268Z,5.03
2022-09-15T16:53:55.428Z,5.72
2022-09-15T16:56:22.294Z,3.72
2022-09-15T16:58:49.007Z,7.00
2022-09-15T17:01:20.220Z,4.63
2022-09-15T17:03:49.557Z,4.10
2022-09-15T17:06:17.694Z,5.25
2022-09-15T17:08:44.554Z,4.82
2022-09-15T17:11:16.874Z,8.52
2022-09-15T17:13:44.188Z,12.23
2022-09-15T17:16:11.643Z,15.65
2022-09-15T17:18:39.238Z,10.57
2022-09-15T17:21:06.570Z,15.35
2022-09-15T17:23:38.096Z,12.27
2022-09-15T17:26:06.785Z,16.58
2022-09-15T17:28:34.941Z,14.73
2022-09-15T17:31:03.790Z,11.95
2022-09-15T17:33:31.233Z,13.85
2022-09-15T17:35:58.237Z,13.63
2022-09-15T17:38:25.598Z,12.43
2022-09-15T17:40:52.567Z,13.07
2022-09-15T17:43:20.529Z,19.20
2022-09-15T17:45:47.743Z,12.48
2022-09-15T17:48:15.104Z,16.35
2022-09-15T17:50:41.988Z,10.43
2022-09-15T17:53:12.861Z,10.02
2022-09-15T17:55:39.712Z,8.88
2022-09-15T17:58:06.485Z,13.63
2022-09-15T18:00:35.945Z,7.57
2022-09-15T18:03:29.994Z,7.43
2022-09-15T18:05:58.523Z,9.57
2022-09-15T18:08:25.791Z,9.90
2022-09-15T18:10:52.578Z,9.00
2022-09-15T18:13:23.778Z,9.80
2022-09-15T18:15:50.662Z,9.88
2022-09-15T18:18:20.343Z,8.48
2022-09-15T18:20:47.270Z,10.13
2022-09-15T18:23:15.028Z,8.18
2022-09-15T18:25:41.847Z,8.88
2022-09-15T18:28:09.078Z,18.35
2022-09-15T18:30:40.644Z,7.28
2022-09-15T18:33:21.370Z,8.82
2022-09-15T18:35:49.399Z,7.78
2022-09-15T18:38:16.480Z,7.80
2022-09-15T18:40:47.622Z,10.35
2022-09-15T18:43:14.491Z,10.30
2022-09-15T18:45:42.581Z,14.65
2022-09-15T18:48:12.666Z,6.55
2022-09-15T18:50:40.303Z,6.55
2022-09-15T18:53:07.088Z,7.13
2022-09-15T18:55:33.826Z,15.82
2022-09-15T18:58:01.226Z,13.20
2022-09-15T19:00:28.723Z,5.55
2022-09-15T19:02:59.847Z,8.93
2022-09-15T19:05:26.898Z,7.95
2022-09-15T19:07:53.785Z,7.88
2022-09-15T19:10:20.563Z,9.65
2022-09-15T19:12:47.314Z,8.02
2022-09-15T19:15:14.214Z,10.68
2022-09-15T19:17:41.292Z,5.47
2022-09-15T19:20:08.793Z,7.50
2022-09-15T19:22:35.777Z,6.53
2022-09-15T19:25:02.647Z,7.75
2022-09-15T19:27:29.676Z,11.45
2022-09-15T19:29:56.441Z,7.38
2022-09-15T19:32:23.257Z,10.32
2022-09-15T19:34:50.116Z,6.28
2022-09-15T19:37:18.836Z,10.48
2022-09-15T19:39:46.384Z,8.80
2022-09-15T19:42:13.338Z,7.72
2022-09-15T19:44:41.157Z,10.82
2022-09-15T19:47:08.498Z,8.18
2022-09-15T19:49:35.335Z,9.35
2022-09-15T19:52:02.107Z,5.82
2022-09-15T19:54:29.278Z,8.95
2022-09-15T19:56:56.217Z,8.93
2022-09-15T19:59:26.277Z,8.93
2022-09-15T20:01:55.597Z,6.90
2022-09-15T20:07:06.941Z,5.70
2022-09-15T20:09:33.683Z,7.07
2022-09-15T20:12:03.201Z,6.60
2022-09-15T20:14:30.749Z,8.70
2022-09-15T20:17:00.830Z,4.30
2022-09-15T20:19:28.103Z,5.97
2022-09-15T20:21:54.802Z,4.00
2022-09-15T20:24:21.854Z,5.82
2022-09-15T20:26:48.636Z,6.00
2022-09-15T20:29:15.415Z,5.22
2022-09-15T20:31:42.505Z,5.25
2022-09-15T20:34:09.204Z,5.55
2022-09-15T20:36:36.853Z,3.90
2022-09-15T20:39:05.049Z,8.63
2022-09-15T20:41:32.084Z,7.65
2022-09-15T20:43:59.113Z,4.85
2022-09-15T20:46:26.236Z,8.60
2022-09-15T20:48:53.266Z,4.75
2022-09-15T20:51:22.800Z,7.45
2022-09-15T20:53:53.926Z,6.40
2022-09-15T20:56:24.764Z,7.60
2022-09-15T20:58:55.667Z,5.45
2022-09-15T21:01:31.901Z,4.88
2022-09-15T21:03:58.762Z,6.25
2022-09-15T21:06:26.728Z,5.50
2022-09-15T21:08:53.729Z,6.30
2022-09-15T21:11:20.800Z,4.38
2022-09-15T21:13:48.124Z,5.28
2022-09-15T21:16:16.706Z,4.90
2022-09-15T21:18:43.828Z,4.72
2022-09-15T21:21:15.706Z,6.53
2022-09-15T21:23:44.419Z,3.92
2022-09-15T21:26:21.909Z,4.78
2022-09-15T21:28:48.812Z,4.65
2022-09-15T21:31:16.377Z,3.97
2022-09-15T21:33:43.655Z,5.30
2022-09-15T21:36:14.996Z,4.07
2022-09-15T21:38:42.202Z,4.75
2022-09-15T21:41:10.015Z,4.47
2022-09-15T21:43:37.937Z,4.80
2022-09-15T21:46:06.304Z,6.38
2022-09-15T21:48:33.881Z,7.50
2022-09-15T21:51:00.935Z,3.40
2022-09-15T21:53:27.993Z,5.43
2022-09-15T21:55:54.843Z,6.72
2022-09-15T21:58:24.063Z,4.50
2022-09-15T22:00:52.922Z,3.78
2022-09-15T22:03:19.943Z,4.25
2022-09-15T22:05:47.149Z,4.63
2022-09-15T22:08:14.810Z,3.80
2022-09-15T22:10:41.909Z,5.65
2022-09-15T22:13:09.756Z,5.07
2022-09-15T22:15:36.553Z,4.20
2022-09-15T22:18:03.680Z,4.53
2022-09-15T22:20:31.059Z,3.58
2022-09-15T22:23:00.429Z,3.38
2022-09-15T22:25:27.174Z,3.33
2022-09-15T22:27:53.897Z,4.35
2022-09-15T22:30:20.631Z,4.30
2022-09-15T22:32:47.528Z,3.40
2022-09-15T22:35:14.622Z,5.38
2022-09-15T22:37:41.355Z,3.97
2022-09-15T22:40:08.721Z,3.67
2022-09-15T22:42:35.590Z,3.22
2022-09-15T22:45:02.371Z,4.72
2022-09-15T22:47:29.081Z,4.15
2022-09-15T22:49:55.886Z,3.08
2022-09-15T22:52:22.593Z,4.53
2022-09-15T22:54:49.361Z,4.35
2022-09-15T22:57:16.322Z,4.25
2022-09-15T22:59:43.037Z,3.67
2022-09-15T23:02:09.949Z,3.70
2022-09-15T23:04:36.759Z,4.43
2022-09-15T23:07:03.483Z,3.38
2022-09-15T23:09:30.237Z,5.07
2022-09-15T23:11:57.007Z,3.22
2022-09-15T23:14:23.980Z,3.47
2022-09-15T23:16:50.729Z,2.95
2022-09-15T23:19:17.539Z,3.15
2022-09-15T23:21:44.382Z,2.58
2022-09-15T23:24:12.488Z,3.58
2022-09-15T23:26:39.365Z,2.47
2022-09-15T23:29:06.150Z,5.00
2022-09-15T23:31:32.939Z,2.88
2022-09-15T23:33:59.727Z,3.60
2022-09-15T23:36:26.517Z,3.40
2022-09-15T23:38:53.337Z,3.20
2022-09-15T23:41:20.209Z,5.45
2022-09-15T23:43:47.764Z,2.95
2022-09-15T23:46:14.615Z,3.92
2022-09-15T23:48:41.542Z,2.92
2022-09-15T23:51:08.834Z,2.92
2022-09-15T23:53:35.652Z,2.88
2022-09-15T23:56:02.627Z,3.20
2022-09-15T23:58:29.364Z,2.63
